createdAt,value
2022-12-19T00:00:46.261Z,-4.92
2022-12-19T00:03:16.254Z,-4.73
2022-12-19T00:05:44.643Z,-4.65
2022-12-19T00:08:18.167Z,-4.72
2022-12-19T00:10:57.222Z,-4.74
2022-12-19T00:13:27.151Z,-4.74
2022-12-19T00:16:01.713Z,-4.70
2022-12-19T00:18:30.180Z,-4.59
2022-12-19T00:21:01.137Z,-4.50
2022-12-19T00:23:31.593Z,-4.85
2022-12-19T00:26:11.684Z,-4.70
2022-12-19T00:28:40.214Z,-4.69
2022-12-19T00:31:08.765Z,-4.68
2022-12-19T00:33:37.889Z,-4.71
2022-12-19T00:36:16.902Z,-4.76
2022-12-19T00:38:52.153Z,-5.67
2022-12-19T00:41:25.192Z,-4.78
2022-12-19T00:43:54.849Z,-4.79
2022-12-19T00:46:23.218Z,-4.57
2022-12-19T00:48:51.509Z,-4.65
2022-12-19T00:51:22.094Z,-4.64
2022-12-19T00:53:51.760Z,-4.53
2022-12-19T00:56:25.912Z,-4.61
2022-12-19T00:58:55.152Z,-4.55
2022-12-19T01:01:51.310Z,-4.42
2022-12-19T01:04:29.154Z,-4.55
2022-12-19T01:07:01.906Z,-4.48
2022-12-19T01:09:33.729Z,-4.34
2022-12-19T01:12:24.421Z,-4.48
2022-12-19T01:14:57.750Z,-5.17
2022-12-19T01:17:44.004Z,-4.35
2022-12-19T01:20:15.117Z,-4.29
2022-12-19T01:22:43.410Z,-4.35
2022-12-19T01:25:15.835Z,-4.46
2022-12-19T01:27:45.476Z,-4.34
2022-12-19T01:30:14.946Z,-4.28
2022-12-19T01:32:43.611Z,-4.37
2022-12-19T01:35:17.358Z,-4.19
2022-12-19T01:37:50.104Z,-4.20
2022-12-19T01:40:18.658Z,-4.37
2022-12-19T01:42:49.140Z,-4.88
2022-12-19T01:45:33.823Z,-4.57
2022-12-19T01:48:20.295Z,-4.48
2022-12-19T01:51:01.073Z,-4.20
2022-12-19T01:53:45.173Z,-4.12
2022-12-19T01:56:21.093Z,-4.08
2022-12-19T01:58:59.387Z,-3.99
2022-12-19T02:01:41.507Z,-4.10
2022-12-19T02:04:24.499Z,-4.04
2022-12-19T02:06:55.137Z,-4.19
2022-12-19T02:09:25.632Z,-4.14
2022-12-19T02:11:54.897Z,-4.27
2022-12-19T02:14:24.912Z,-4.33
2022-12-19T02:17:00.485Z,-4.24
2022-12-19T02:20:16.782Z,-4.26
2022-12-19T02:23:07.579Z,-4.24
2022-12-19T02:26:06.653Z,-4.34
2022-12-19T02:28:58.614Z,-4.29
2022-12-19T02:31:32.658Z,-4.20
2022-12-19T02:34:11.551Z,-4.22
2022-12-19T02:36:52.891Z,-4.20
2022-12-19T02:39:28.218Z,-4.21
2022-12-19T02:42:00.856Z,-5.14
2022-12-19T02:44:35.017Z,-4.17
2022-12-19T02:47:06.885Z,-4.18
2022-12-19T02:49:39.641Z,-4.20
2022-12-19T02:52:12.671Z,-4.16
2022-12-19T02:54:44.955Z,-4.09
2022-12-19T02:57:21.456Z,-4.30
2022-12-19T03:00:05.357Z,-4.14
2022-12-19T03:03:00.229Z,-4.35
2022-12-19T03:05:37.243Z,-4.18
2022-12-19T03:08:14.219Z,-4.16
2022-12-19T03:10:46.939Z,-4.18
2022-12-19T03:13:20.777Z,-4.21
2022-12-19T03:15:51.067Z,-4.05
2022-12-19T03:18:21.349Z,-5.62
2022-12-19T03:20:54.111Z,-4.05
2022-12-19T03:23:23.095Z,-4.56
2022-12-19T03:25:55.425Z,-3.91
2022-12-19T03:28:28.909Z,-3.93
2022-12-19T03:31:00.143Z,-3.90
2022-12-19T03:33:33.807Z,-3.88
2022-12-19T03:36:07.673Z,-3.86
2022-12-19T03:38:39.265Z,-4.32
2022-12-19T03:41:10.164Z,-3.86
2022-12-19T03:43:40.052Z,-3.80
2022-12-19T03:46:17.435Z,-3.79
2022-12-19T03:48:50.239Z,-3.88
2022-12-19T03:51:30.533Z,-3.86
2022-12-19T03:54:04.646Z,-3.90
2022-12-19T03:56:39.554Z,-3.83
2022-12-19T03:59:12.439Z,-4.51
2022-12-19T04:01:42.464Z,-2.65
2022-12-19T04:04:13.161Z,-3.93
2022-12-19T04:06:43.711Z,-3.88
2022-12-19T04:09:15.679Z,-3.91
2022-12-19T04:11:52.277Z,-4.11
2022-12-19T04:14:26.746Z,-3.86
2022-12-19T04:17:05.327Z,-4.16
2022-12-19T04:19:43.944Z,-3.86
2022-12-19T04:22:17.946Z,-3.99
2022-12-19T04:24:51.096Z,-3.77
2022-12-19T04:27:23.837Z,-3.84
2022-12-19T04:29:56.256Z,-3.83
2022-12-19T04:32:26.667Z,-3.73
2022-12-19T04:34:56.375Z,-3.66
2022-12-19T04:37:24.628Z,-3.67
2022-12-19T04:39:53.029Z,-3.62
2022-12-19T04:42:21.555Z,-3.68
2022-12-19T04:44:49.827Z,-3.51
2022-12-19T04:47:18.114Z,-3.50
2022-12-19T04:49:46.529Z,-3.42
2022-12-19T04:52:16.153Z,-3.47
2022-12-19T04:54:44.420Z,-3.55
2022-12-19T04:57:12.733Z,-3.41
2022-12-19T04:59:41.858Z,-3.45
2022-12-19T05:02:10.193Z,-3.27
2022-12-19T05:04:38.570Z,-3.42
2022-12-19T05:07:06.845Z,-3.48
2022-12-19T05:09:36.464Z,-3.39
2022-12-19T05:12:05.436Z,-3.26
2022-12-19T05:14:33.774Z,-3.35
2022-12-19T05:17:02.105Z,-3.39
2022-12-19T05:19:30.552Z,-3.33
2022-12-19T05:21:59.251Z,-3.41
2022-12-19T05:24:27.680Z,-3.35
2022-12-19T05:26:57.315Z,-3.31
2022-12-19T05:29:25.791Z,-3.34
2022-12-19T05:31:54.515Z,-3.41
2022-12-19T05:34:22.886Z,-3.22
2022-12-19T05:36:51.212Z,-3.34
2022-12-19T05:39:19.884Z,-3.30
2022-12-19T05:41:49.319Z,-3.39
2022-12-19T05:44:19.053Z,-3.31
2022-12-19T05:46:47.793Z,-3.34
2022-12-19T05:49:16.292Z,-3.35
2022-12-19T05:51:47.766Z,-3.48
2022-12-19T05:54:16.410Z,-3.26
2022-12-19T05:56:44.960Z,-3.21
2022-12-19T05:59:13.273Z,-3.23
2022-12-19T06:01:43.492Z,-3.19
2022-12-19T06:04:11.862Z,-3.18
2022-12-19T06:06:40.235Z,-3.10
2022-12-19T06:09:08.547Z,-3.24
2022-12-19T06:11:36.818Z,-3.17
2022-12-19T06:14:05.138Z,-3.06
2022-12-19T06:16:33.462Z,-3.10
2022-12-19T06:19:03.173Z,-3.03
2022-12-19T06:21:31.448Z,-3.16
2022-12-19T06:24:00.004Z,-2.97
2022-12-19T06:26:28.532Z,-3.02
2022-12-19T06:28:57.283Z,-3.06
2022-12-19T06:31:26.308Z,-2.92
2022-12-19T06:33:56.870Z,-2.94
2022-12-19T06:36:28.683Z,-2.92
2022-12-19T06:39:00.174Z,-2.81
2022-12-19T06:41:46.342Z,-2.91
2022-12-19T06:44:17.116Z,-2.86
2022-12-19T06:46:45.862Z,-2.84
2022-12-19T06:49:14.350Z,-2.87
2022-12-19T06:51:44.530Z,-2.91
2022-12-19T06:54:13.696Z,-2.87
2022-12-19T06:56:44.134Z,-2.85
2022-12-19T06:59:15.433Z,-2.82
2022-12-19T07:01:57.808Z,-2.84
2022-12-19T07:04:34.380Z,-2.88
2022-12-19T07:07:11.462Z,-2.77
2022-12-19T07:09:40.136Z,-2.71
2022-12-19T07:12:09.055Z,-2.78
2022-12-19T07:14:37.778Z,-2.77
2022-12-19T07:17:06.618Z,-2.70
2022-12-19T07:19:36.279Z,-2.54
2022-12-19T07:22:05.948Z,-2.72
2022-12-19T07:24:36.785Z,-2.66
2022-12-19T07:27:05.407Z,-2.64
2022-12-19T07:29:33.659Z,-2.62
2022-12-19T07:32:01.961Z,-2.68
2022-12-19T07:34:30.722Z,-2.66
2022-12-19T07:36:58.980Z,-2.65
2022-12-19T07:39:27.647Z,-2.54
2022-12-19T07:41:57.351Z,-2.49
2022-12-19T07:44:40.031Z,-2.46
2022-12-19T07:47:11.379Z,-2.43
2022-12-19T07:49:39.679Z,-2.47
2022-12-19T07:52:08.439Z,-2.44
2022-12-19T07:54:36.698Z,-2.32
2022-12-19T07:57:06.338Z,-2.44
2022-12-19T07:59:39.112Z,-2.47
2022-12-19T08:02:08.212Z,-2.40
2022-12-19T08:04:36.635Z,-2.44
2022-12-19T08:07:05.188Z,-2.42
2022-12-19T08:09:33.626Z,-2.33
2022-12-19T08:12:01.995Z,-2.33
2022-12-19T08:14:31.634Z,-2.19
2022-12-19T08:19:48.540Z,-2.04
2022-12-19T08:22:16.814Z,-1.92
2022-12-19T08:24:45.438Z,-2.09
2022-12-19T08:27:13.679Z,-1.94
2022-12-19T08:29:43.396Z,-1.98
2022-12-19T08:32:15.625Z,-1.97
2022-12-19T08:34:47.155Z,-1.84
2022-12-19T08:37:15.420Z,-1.76
2022-12-19T08:39:43.701Z,-1.85
2022-12-19T08:42:12.006Z,-1.79
2022-12-19T08:44:40.309Z,-1.57
2022-12-19T08:47:09.889Z,-1.58
2022-12-19T08:49:38.183Z,-1.58
2022-12-19T08:52:06.492Z,-1.61
2022-12-19T08:54:35.010Z,-1.57
2022-12-19T08:57:03.328Z,-1.62
2022-12-19T08:59:32.418Z,-1.54
2022-12-19T09:02:01.813Z,-1.47
2022-12-19T09:05:57.825Z,-1.41
2022-12-19T09:07:20.001Z,-1.41
2022-12-19T09:09:48.504Z,-1.33
2022-12-19T09:12:17.524Z,-1.34
2022-12-19T09:14:45.992Z,-1.25
2022-12-19T09:17:14.385Z,-1.28
2022-12-19T09:19:47.973Z,-1.09
2022-12-19T09:22:17.512Z,-1.02
2022-12-19T09:24:45.784Z,-1.10
2022-12-19T09:27:14.617Z,-1.03
2022-12-19T09:29:43.756Z,-0.90
2022-12-19T09:32:12.467Z,-0.85
2022-12-19T09:34:47.255Z,-0.85
2022-12-19T09:37:17.668Z,-0.68
2022-12-19T09:39:47.304Z,-0.81
2022-12-19T09:42:59.363Z,-0.70
2022-12-19T09:45:44.513Z,-0.66
2022-12-19T09:48:23.939Z,-0.84
2022-12-19T09:51:09.237Z,-0.60
2022-12-19T09:53:54.522Z,-0.40
2022-12-19T09:56:28.265Z,-0.33
2022-12-19T09:59:03.614Z,-0.32
2022-12-19T10:01:38.899Z,-0.21
2022-12-19T10:04:13.512Z,-0.07
2022-12-19T10:07:15.773Z,0.05
2022-12-19T10:11:37.255Z,0.07
2022-12-19T10:12:52.940Z,0.22
2022-12-19T10:15:31.119Z,0.20
2022-12-19T10:18:30.764Z,0.36
2022-12-19T10:21:08.247Z,0.25
2022-12-19T10:24:18.998Z,0.26
2022-12-19T10:26:52.567Z,0.27
2022-12-19T10:29:47.604Z,0.17
2022-12-19T10:32:25.369Z,0.28
2022-12-19T10:34:54.942Z,0.36
2022-12-19T10:37:37.590Z,0.35
2022-12-19T10:40:27.584Z,0.51
2022-12-19T10:43:10.425Z,0.63
2022-12-19T10:45:46.969Z,0.61
2022-12-19T10:48:25.709Z,-0.16
2022-12-19T10:51:06.263Z,0.65
2022-12-19T10:53:35.433Z,0.73
2022-12-19T10:56:15.510Z,0.78
2022-12-19T10:58:45.755Z,0.70
2022-12-19T11:01:17.477Z,0.86
2022-12-19T11:03:50.990Z,0.94
2022-12-19T11:06:51.147Z,0.79
2022-12-19T11:09:27.686Z,0.79
2022-12-19T11:16:09.533Z,0.82
2022-12-19T11:19:16.583Z,0.92
2022-12-19T11:25:43.461Z,1.03
2022-12-19T11:29:44.966Z,0.43
2022-12-19T11:29:54.826Z,1.06
2022-12-19T11:30:46.766Z,1.06
2022-12-19T11:32:43.632Z,1.03
2022-12-19T11:35:24.852Z,1.03
2022-12-19T11:37:57.742Z,0.99
2022-12-19T11:40:35.213Z,1.00
2022-12-19T11:43:43.025Z,1.02
2022-12-19T11:46:06.937Z,0.96
2022-12-19T11:48:42.558Z,1.14
2022-12-19T11:51:22.274Z,0.98
2022-12-19T11:53:58.119Z,1.10
2022-12-19T11:56:27.969Z,0.82
2022-12-19T11:59:00.987Z,1.27
2022-12-19T12:01:52.330Z,1.35
2022-12-19T12:04:56.545Z,1.45
2022-12-19T12:07:43.963Z,1.47
2022-12-19T12:14:55.892Z,1.42
2022-12-19T12:21:44.232Z,1.69
2022-12-19T12:28:32.365Z,1.74
2022-12-19T12:31:01.482Z,1.84
2022-12-19T12:31:13.773Z,1.96
2022-12-19T12:31:18.282Z,1.96
2022-12-19T12:31:52.361Z,1.98
2022-12-19T12:35:40.782Z,1.91
2022-12-19T12:41:09.781Z,1.82
2022-12-19T12:43:58.327Z,1.86
2022-12-19T12:46:33.091Z,1.66
2022-12-19T12:49:06.484Z,1.76
2022-12-19T12:51:36.949Z,1.69
2022-12-19T12:54:11.584Z,1.72
2022-12-19T12:56:40.714Z,1.67
2022-12-19T12:59:25.875Z,1.67
2022-12-19T13:01:56.285Z,1.65
2022-12-19T13:04:33.093Z,1.67
2022-12-19T13:07:36.266Z,1.71
2022-12-19T13:10:18.979Z,1.57
2022-12-19T13:13:14.261Z,1.53
2022-12-19T13:15:45.859Z,1.62
2022-12-19T13:18:34.166Z,1.61
2022-12-19T13:21:08.156Z,1.53
2022-12-19T13:23:52.724Z,1.47
2022-12-19T13:26:47.810Z,1.41
2022-12-19T13:29:35.547Z,1.54
2022-12-19T13:32:15.950Z,1.53
2022-12-19T13:35:05.823Z,1.55
2022-12-19T13:39:57.007Z,1.64
2022-12-19T13:40:59.389Z,1.41
2022-12-19T13:43:46.201Z,1.12
2022-12-19T13:46:33.534Z,1.78
2022-12-19T13:49:08.094Z,1.77
2022-12-19T13:51:50.756Z,1.77
2022-12-19T13:54:32.955Z,1.84
2022-12-19T13:57:27.253Z,1.81
2022-12-19T14:00:01.305Z,1.68
2022-12-19T14:02:46.696Z,1.71
2022-12-19T14:05:48.545Z,1.60
2022-12-19T14:08:20.892Z,1.61
2022-12-19T14:11:36.033Z,1.69
2022-12-19T14:14:12.618Z,1.53
2022-12-19T14:16:45.734Z,1.47
2022-12-19T14:19:23.485Z,1.34
2022-12-19T14:22:11.069Z,1.40
2022-12-19T14:24:41.371Z,1.35
2022-12-19T14:28:26.135Z,1.47
2022-12-19T14:30:27.815Z,1.33
2022-12-19T14:33:45.065Z,1.22
2022-12-19T14:36:10.046Z,1.32
2022-12-19T14:39:22.475Z,1.14
2022-12-19T14:42:01.824Z,0.78
2022-12-19T14:53:17.505Z,0.99
2022-12-19T14:54:11.820Z,1.04
2022-12-19T14:54:25.926Z,0.94
2022-12-19T14:54:26.486Z,1.05
2022-12-19T14:59:03.087Z,0.87
2022-12-19T15:01:34.148Z,0.84
2022-12-19T15:04:48.163Z,0.78
2022-12-19T15:07:11.782Z,0.74
2022-12-19T15:11:03.854Z,0.84
2022-12-19T15:14:54.139Z,0.70
2022-12-19T15:16:05.299Z,0.74
2022-12-19T15:18:41.340Z,0.74
2022-12-19T15:21:14.579Z,0.67
2022-12-19T15:23:45.394Z,0.60
2022-12-19T15:26:18.859Z,0.64
2022-12-19T15:28:50.882Z,0.59
2022-12-19T15:31:29.884Z,0.65
2022-12-19T15:36:47.993Z,0.63
2022-12-19T15:39:16.549Z,0.54
2022-12-19T15:41:46.329Z,0.56
2022-12-19T15:44:18.785Z,0.50
2022-12-19T15:46:49.357Z,0.52
2022-12-19T15:49:19.697Z,0.50
2022-12-19T15:51:50.484Z,0.44
2022-12-19T15:54:48.029Z,0.50
2022-12-19T15:57:19.874Z,0.46
2022-12-19T15:59:48.737Z,0.42
2022-12-19T16:02:22.748Z,0.47
2022-12-19T16:04:56.899Z,0.20
2022-12-19T16:07:31.832Z,0.37
2022-12-19T16:10:00.206Z,0.38
2022-12-19T16:12:37.602Z,0.46
2022-12-19T16:15:07.654Z,0.40
2022-12-19T16:17:35.941Z,0.40
2022-12-19T16:20:04.231Z,0.37
2022-12-19T16:22:33.918Z,0.43
2022-12-19T16:25:02.223Z,0.25
2022-12-19T16:27:32.238Z,0.32
2022-12-19T16:30:18.981Z,0.39
2022-12-19T16:32:48.422Z,0.43
2022-12-19T16:35:29.002Z,0.30
2022-12-19T16:38:09.107Z,0.26
2022-12-19T16:40:37.452Z,0.34
2022-12-19T16:43:08.920Z,0.19
2022-12-19T16:45:39.435Z,0.19
2022-12-19T16:48:19.894Z,0.23
2022-12-19T16:50:48.489Z,0.13
2022-12-19T16:53:18.804Z,-0.03
2022-12-19T16:55:48.840Z,0.09
2022-12-19T16:58:27.998Z,0.06
2022-12-19T17:00:56.982Z,0.06
2022-12-19T17:03:40.959Z,0.03
2022-12-19T17:06:19.621Z,-0.03
2022-12-19T17:08:49.996Z,-0.68
2022-12-19T17:11:22.892Z,-0.02
2022-12-19T17:13:53.987Z,-0.01
2022-12-19T17:16:22.583Z,-0.09
2022-12-19T17:18:51.509Z,0.00
2022-12-19T17:21:22.884Z,-0.03
2022-12-19T17:23:52.983Z,-0.04
2022-12-19T17:26:21.289Z,-0.09
2022-12-19T17:28:49.596Z,-0.13
2022-12-19T17:31:23.652Z,-0.19
2022-12-19T17:33:52.458Z,-0.04
2022-12-19T17:36:25.428Z,-0.06
2022-12-19T17:38:56.554Z,-0.15
2022-12-19T17:41:25.516Z,-0.06
2022-12-19T17:43:54.309Z,-0.07
2022-12-19T17:46:24.810Z,-0.11
2022-12-19T17:48:54.738Z,-0.04
2022-12-19T17:51:24.699Z,-0.09
2022-12-19T17:53:53.967Z,0.01
2022-12-19T17:56:23.533Z,-0.01
2022-12-19T17:58:51.833Z,-0.02
2022-12-19T18:01:21.716Z,-0.01
2022-12-19T18:03:52.651Z,-0.02
2022-12-19T18:06:21.666Z,-0.03
2022-12-19T18:08:49.973Z,-0.05
2022-12-19T18:11:21.643Z,0.74
2022-12-19T18:13:52.717Z,-0.08
2022-12-19T18:16:24.781Z,-0.02
2022-12-19T18:18:53.261Z,-0.18
2022-12-19T18:21:24.205Z,-0.09
2022-12-19T18:23:52.743Z,-0.14
2022-12-19T18:26:21.035Z,-0.25
2022-12-19T18:28:50.909Z,-0.19
2022-12-19T18:31:25.428Z,-0.11
2022-12-19T18:34:00.836Z,-0.16
2022-12-19T18:36:38.274Z,-0.96
2022-12-19T18:39:19.269Z,-0.24
2022-12-19T18:41:47.885Z,-0.25
2022-12-19T18:44:17.838Z,-0.27
2022-12-19T18:46:47.316Z,-0.22
2022-12-19T18:49:17.776Z,-0.42
2022-12-19T18:51:46.225Z,-0.46
2022-12-19T18:54:15.647Z,-0.69
2022-12-19T18:56:44.483Z,-0.85
2022-12-19T18:59:13.588Z,-0.41
2022-12-19T19:01:47.498Z,-1.21
2022-12-19T19:04:17.811Z,-0.36
2022-12-19T19:06:51.597Z,-0.31
2022-12-19T19:09:22.611Z,-0.24
2022-12-19T19:11:53.830Z,-0.36
2022-12-19T19:14:22.480Z,-0.30
2022-12-19T19:16:52.981Z,0.13
2022-12-19T19:19:21.330Z,-0.44
2022-12-19T19:21:49.733Z,-0.42
2022-12-19T19:24:20.668Z,-0.38
2022-12-19T19:26:49.561Z,-0.18
2022-12-19T19:29:19.714Z,-0.23
2022-12-19T19:31:52.462Z,-0.29
2022-12-19T19:34:26.063Z,-0.99
2022-12-19T19:36:56.927Z,-0.45
2022-12-19T19:39:25.646Z,-0.54
2022-12-19T19:41:56.112Z,-0.56
2022-12-19T19:44:24.502Z,-0.57
2022-12-19T19:46:54.224Z,-0.62
2022-12-19T19:49:23.144Z,-0.59
2022-12-19T19:51:54.334Z,-0.51
2022-12-19T19:54:26.884Z,-0.49
2022-12-19T19:56:55.157Z,-0.67
2022-12-19T19:59:23.881Z,-0.89
2022-12-19T20:01:54.418Z,-0.72
2022-12-19T20:04:23.202Z,-0.68
2022-12-19T20:06:51.493Z,-0.70
2022-12-19T20:09:19.845Z,-0.60
2022-12-19T20:11:48.075Z,-0.64
2022-12-19T20:14:16.344Z,-0.62
2022-12-19T20:16:44.749Z,-0.66
2022-12-19T20:19:15.656Z,-0.68
2022-12-19T20:21:44.089Z,-1.30
2022-12-19T20:24:12.816Z,-0.79
2022-12-19T20:26:41.395Z,-1.35
2022-12-19T20:29:11.508Z,-0.74
2022-12-19T20:31:40.274Z,-0.81
2022-12-19T20:34:08.927Z,-0.74
2022-12-19T20:36:38.750Z,-0.76
2022-12-19T20:39:07.460Z,-0.74
2022-12-19T20:41:35.993Z,-0.69
2022-12-19T20:44:04.364Z,-0.70
2022-12-19T20:46:32.674Z,-0.73
2022-12-19T20:49:01.080Z,-0.76
2022-12-19T20:51:29.328Z,-0.81
2022-12-19T20:53:59.513Z,-0.74
2022-12-19T20:56:28.514Z,-0.70
2022-12-19T20:58:56.989Z,-0.63
2022-12-19T21:01:50.913Z,-0.77
2022-12-19T21:04:26.698Z,-0.71
2022-12-19T21:06:55.441Z,-0.78
2022-12-19T21:09:25.005Z,-0.77
2022-12-19T21:11:53.216Z,-0.68
2022-12-19T21:14:37.248Z,-0.75
2022-12-19T21:17:05.598Z,-0.54
2022-12-19T21:19:33.946Z,-0.82
2022-12-19T21:22:02.412Z,-0.75
2022-12-19T21:24:33.044Z,-0.77
2022-12-19T21:27:01.576Z,-0.71
2022-12-19T21:29:29.869Z,-0.64
2022-12-19T21:31:58.197Z,-0.59
2022-12-19T21:34:26.670Z,-0.54
2022-12-19T21:36:55.062Z,-0.41
2022-12-19T21:39:25.437Z,-0.52
2022-12-19T21:41:55.759Z,-0.56
2022-12-19T21:44:24.046Z,-0.50
2022-12-19T21:46:52.429Z,-0.34
2022-12-19T21:49:21.235Z,-0.44
2022-12-19T21:51:49.493Z,-0.42
2022-12-19T21:54:17.772Z,-0.35
2022-12-19T21:56:46.023Z,-0.33
2022-12-19T21:59:18.036Z,-0.43
2022-12-19T22:01:46.919Z,-0.44
2022-12-19T22:04:17.800Z,-0.41
2022-12-19T22:06:46.318Z,-0.44
2022-12-19T22:09:17.561Z,-0.33
2022-12-19T22:11:46.471Z,-0.35
2022-12-19T22:14:17.915Z,-0.34
2022-12-19T22:16:46.452Z,-0.40
2022-12-19T22:19:17.175Z,-0.32
2022-12-19T22:21:46.862Z,-0.31
2022-12-19T22:24:17.045Z,-0.22
2022-12-19T22:26:45.417Z,-0.26
2022-12-19T22:29:18.686Z,-0.22
2022-12-19T22:31:47.773Z,-0.21
2022-12-19T22:34:18.786Z,-0.20
2022-12-19T22:36:47.831Z,-0.21
2022-12-19T22:39:19.989Z,-0.48
2022-12-19T22:41:48.591Z,-0.10
2022-12-19T22:44:21.422Z,-0.16
2022-12-19T22:46:51.198Z,-0.20
2022-12-19T22:49:19.647Z,-0.06
2022-12-19T22:51:47.890Z,-0.19
2022-12-19T22:54:16.285Z,-0.12
2022-12-19T22:56:44.688Z,-0.18
2022-12-19T22:59:13.899Z,-0.07
2022-12-19T23:01:44.913Z,-0.06
2022-12-19T23:04:22.464Z,-0.09
2022-12-19T23:06:50.813Z,-0.15
2022-12-19T23:09:20.463Z,-0.09
2022-12-19T23:11:50.725Z,-0.05
2022-12-19T23:14:21.075Z,-0.04
2022-12-19T23:16:51.147Z,-0.04
2022-12-19T23:19:19.699Z,-0.12
2022-12-19T23:21:48.370Z,-0.13
2022-12-19T23:24:16.759Z,-0.11
2022-12-19T23:26:45.843Z,-0.16
2022-12-19T23:29:16.349Z,-0.77
2022-12-19T23:31:47.469Z,-0.16
2022-12-19T23:34:18.766Z,-0.17
2022-12-19T23:39:36.640Z,-0.09
2022-12-19T23:42:05.122Z,-0.09
2022-12-19T23:44:33.480Z,-0.12
2022-12-19T23:47:03.916Z,-0.04
2022-12-19T23:49:34.478Z,-0.02
2022-12-19T23:52:02.851Z,-0.05
2022-12-19T23:54:31.338Z,0.03
2022-12-19T23:56:59.778Z,0.86
2022-12-19T23:59:28.021Z,-0.05
